Time;durP1;ratioP1;P1;durP2;ratioP2;P2;SDS_P1;SDS_P2;PMS_P1;PMS_P2;Temp;Humidity;BMP_temperature;BMP_pressure;BME280_temperature;BME280_humidity;BME280_pressure;Samples;Min_cycle;Max_cycle;Signal;HPM_P1;HPM_P2
2022/01/14 00:01:54;;;;;;;358.33;33.30;;;;;;;;;;5085949;28;20484;-72
2022/01/14 00:04:21;;;;;;;438.73;91.95;;;;;;;;;;5091506;28;20027;-72
2022/01/14 00:06:49;;;;;;;425.35;61.72;;;;;;;;;;5090137;28;20051;-71
2022/01/14 00:09:16;;;;;;;825.17;98.20;;;;;;;;;;5052962;28;20032;-71
2022/01/14 00:11:48;;;;;;;405.73;74.70;;;;;;;;;;5069281;28;20521;-71
2022/01/14 00:14:22;;;;;;;374.15;75.88;;;;;;;;;;5091841;28;20023;-71
2022/01/14 00:16:50;;;;;;;426.95;53.95;;;;;;;;;;5091844;28;20035;-72
2022/01/14 00:19:18;;;;;;;445.45;82.32;;;;;;;;;;5092190;28;20024;-72
2022/01/14 00:21:45;;;;;;;429.25;70.25;;;;;;;;;;5093005;28;20515;-70
2022/01/14 00:33:02;;;;;;;461.58;90.53;;;;;;;;;;5080688;28;20066;-69
2022/01/14 00:35:09;;;;;;;1428.88;309.17;;;;;;;;;;5075673;28;20032;-71
2022/01/14 00:37:36;;;;;;;421.00;78.18;;;;;;;;;;5080515;28;20040;-71
2022/01/14 00:40:03;;;;;;;424.08;51.05;;;;;;;;;;5082912;28;20036;-70
2022/01/14 00:42:30;;;;;;;108.68;15.27;;;;;;;;;;5079468;28;20111;-70
2022/01/14 00:44:58;;;;;;;434.05;76.28;;;;;;;;;;5065193;28;20567;-71
2022/01/14 00:47:25;;;;;;;433.83;56.08;;;;;;;;;;5060726;28;20111;-69
2022/01/14 00:49:52;;;;;;;432.40;68.57;;;;;;;;;;5091896;28;20024;-68
2022/01/14 00:52:18;;;;;;;425.00;33.05;;;;;;;;;;5092116;28;20026;-72
2022/01/14 00:54:46;;;;;;;431.48;39.67;;;;;;;;;;5091444;28;20024;-71
2022/01/14 00:57:27;;;;;;;428.30;69.88;;;;;;;;;;5087347;28;20032;-71
2022/01/14 00:59:54;;;;;;;1648.03;673.38;;;;;;;;;;5088781;28;20027;-71
2022/01/14 01:02:21;;;;;;;454.08;83.38;;;;;;;;;;5079356;28;20032;-70
2022/01/14 01:04:50;;;;;;;548.72;130.00;;;;;;;;;;5068924;28;20028;-70
2022/01/14 01:07:18;;;;;;;1075.72;240.80;;;;;;;;;;5091111;28;20020;-71
2022/01/14 01:09:48;;;;;;;795.65;254.98;;;;;;;;;;5073167;28;20027;-70
2022/01/14 01:12:47;;;;;;;1869.30;482.42;;;;;;;;;;5080270;28;20032;-70
2022/01/14 01:15:09;;;;;;;620.00;115.57;;;;;;;;;;5072386;28;20043;-71
2022/01/14 01:17:36;;;;;;;432.45;70.63;;;;;;;;;;5072634;28;20033;-69
2022/01/14 01:20:18;;;;;;;447.33;71.80;;;;;;;;;;5079876;28;20024;-69
2022/01/14 01:22:49;;;;;;;466.58;103.38;;;;;;;;;;5078653;28;20119;-69
2022/01/14 01:25:20;;;;;;;370.60;97.22;;;;;;;;;;5080128;28;20496;-69
2022/01/14 01:27:49;;;;;;;1999.90;999.90;;;;;;;;;;5076473;28;20083;-69
2022/01/14 01:30:47;;;;;;;1999.90;999.90;;;;;;;;;;5061864;28;20391;-68
2022/01/14 01:33:04;;;;;;;549.92;151.95;;;;;;;;;;5069321;28;20042;-70
2022/01/14 01:35:32;;;;;;;1999.90;895.75;;;;;;;;;;5076663;28;20119;-70
2022/01/14 01:37:59;;;;;;;473.88;98.55;;;;;;;;;;5074028;28;20013;-70
2022/01/14 01:40:27;;;;;;;476.98;82.95;;;;;;;;;;5078492;28;20196;-70
2022/01/14 01:42:56;;;;;;;1101.18;420.55;;;;;;;;;;5079026;28;20016;-70
2022/01/14 01:45:25;;;;;;;1123.00;406.92;;;;;;;;;;5079395;28;20028;-68
2022/01/14 01:47:54;;;;;;;1575.60;546.42;;;;;;;;;;5077953;28;20440;-69
2022/01/14 01:50:22;;;;;;;1999.90;999.90;;;;;;;;;;5078535;28;20029;-70
2022/01/14 01:52:50;;;;;;;1999.90;999.90;;;;;;;;;;5080486;28;20039;-68
2022/01/14 01:55:17;;;;;;;965.97;375.92;;;;;;;;;;5079473;28;20031;-69
2022/01/14 01:57:46;;;;;;;640.42;102.68;;;;;;;;;;5081015;28;20559;-69
2022/01/14 02:00:15;;;;;;;696.05;230.63;;;;;;;;;;5078187;28;20437;-69
2022/01/14 02:02:42;;;;;;;460.40;99.03;;;;;;;;;;5065075;28;20096;-69
2022/01/14 02:05:09;;;;;;;840.90;151.40;;;;;;;;;;5079656;28;20498;-70
2022/01/14 02:07:37;;;;;;;1884.75;664.63;;;;;;;;;;5080474;28;20069;-70
2022/01/14 02:10:04;;;;;;;1999.90;999.90;;;;;;;;;;5082480;28;20033;-70
2022/01/14 02:12:37;;;;;;;1999.90;999.90;;;;;;;;;;5084118;28;20032;-70
2022/01/14 02:15:14;;;;;;;1999.90;999.90;;;;;;;;;;5090346;28;20031;-71
2022/01/14 02:23:06;;;;;;;933.63;198.95;;;;;;;;;;5086577;28;20054;-71
2022/01/14 02:25:33;;;;;;;1999.90;824.00;;;;;;;;;;5089624;28;20472;-68
2022/01/14 02:28:08;;;;;;;556.63;159.52;;;;;;;;;;5090040;28;20131;-67
2022/01/14 02:30:38;;;;;;;1999.90;999.90;;;;;;;;;;5068267;28;20120;-71
2022/01/14 02:33:06;;;;;;;1999.90;999.90;;;;;;;;;;5082020;28;20012;-70
2022/01/14 02:35:33;;;;;;;1395.30;437.10;;;;;;;;;;5081672;28;20029;-70
2022/01/14 02:38:00;;;;;;;1999.90;999.90;;;;;;;;;;5058552;28;20020;-69
2022/01/14 02:40:28;;;;;;;1999.90;999.90;;;;;;;;;;5083089;28;20092;-69
2022/01/14 02:42:59;;;;;;;480.52;112.10;;;;;;;;;;5084055;28;20024;-69
2022/01/14 02:45:30;;;;;;;417.52;56.22;;;;;;;;;;5084238;28;20081;-68
2022/01/14 02:47:57;;;;;;;124.83;36.77;;;;;;;;;;5055745;28;20024;-71
2022/01/14 02:50:25;;;;;;;423.85;80.68;;;;;;;;;;5074660;28;20033;-70
2022/01/14 02:55:28;;;;;;;423.92;60.45;;;;;;;;;;5081675;28;20051;-71
2022/01/14 02:57:55;;;;;;;389.85;82.20;;;;;;;;;;5080470;28;20055;-69
2022/01/14 03:00:25;;;;;;;458.10;87.65;;;;;;;;;;5079387;28;20078;-70
2022/01/14 03:02:52;;;;;;;434.70;78.43;;;;;;;;;;5058842;28;20078;-69
2022/01/14 03:05:20;;;;;;;583.95;103.63;;;;;;;;;;5086883;28;20031;-67
2022/01/14 03:07:48;;;;;;;835.45;155.90;;;;;;;;;;5081997;28;20507;-69
2022/01/14 03:10:19;;;;;;;281.75;69.07;;;;;;;;;;5079168;28;20024;-68
2022/01/14 03:12:48;;;;;;;614.50;157.65;;;;;;;;;;5081155;28;20141;-68
2022/01/14 03:15:16;;;;;;;428.80;71.40;;;;;;;;;;5082412;28;20024;-68
2022/01/14 03:17:43;;;;;;;1852.15;584.30;;;;;;;;;;5067743;28;20127;-69
2022/01/14 03:20:26;;;;;;;461.55;74.65;;;;;;;;;;5078030;28;20021;-68
2022/01/14 03:23:04;;;;;;;1999.90;678.15;;;;;;;;;;5074199;28;20024;-67
2022/01/14 03:26:03;;;;;;;495.85;91.70;;;;;;;;;;5076718;28;20361;-69
2022/01/14 03:28:24;;;;;;;479.90;106.65;;;;;;;;;;5068531;28;20052;-67
2022/01/14 03:30:53;;;;;;;430.63;66.90;;;;;;;;;;5080871;28;20082;-69
2022/01/14 03:33:21;;;;;;;522.92;104.70;;;;;;;;;;5082201;28;20431;-68
2022/01/14 03:35:49;;;;;;;1913.07;364.65;;;;;;;;;;5080618;28;20063;-68
2022/01/14 03:38:16;;;;;;;387.73;80.05;;;;;;;;;;5078762;28;20013;-68
2022/01/14 03:40:43;;;;;;;437.95;59.00;;;;;;;;;;5065276;28;20031;-67
2022/01/14 03:43:11;;;;;;;465.63;97.65;;;;;;;;;;5082102;28;20024;-67
2022/01/14 03:45:41;;;;;;;430.83;76.78;;;;;;;;;;5085571;28;20024;-68
2022/01/14 03:48:08;;;;;;;455.58;102.03;;;;;;;;;;5087387;28;20024;-68
2022/01/14 03:50:36;;;;;;;335.98;43.80;;;;;;;;;;5192464;23;20115;-67
2022/01/14 03:53:04;;;;;;;461.63;96.07;;;;;;;;;;4992370;28;20033;-67
2022/01/14 03:55:31;;;;;;;482.45;103.30;;;;;;;;;;4993674;28;20026;-67
2022/01/14 10:08:45;;;;;;;1999.90;999.90;;;;;;;;;;4662564;28;20121;-70
2022/01/14 10:11:12;;;;;;;1999.90;999.90;;;;;;;;;;4990359;28;20034;-67
2022/01/14 10:13:39;;;;;;;1999.90;999.90;;;;;;;;;;4990922;28;20109;-72
2022/01/14 10:16:07;;;;;;;1999.90;511.90;;;;;;;;;;4990942;28;20030;-72
2022/01/14 10:18:35;;;;;;;1999.90;999.90;;;;;;;;;;4988332;28;20030;-68
2022/01/14 10:21:05;;;;;;;1999.90;675.92;;;;;;;;;;4990717;28;20394;-71
2022/01/14 10:23:59;;;;;;;1999.90;461.50;;;;;;;;;;4990430;28;20110;-70
2022/01/14 10:26:30;;;;;;;1412.93;236.20;;;;;;;;;;4988775;28;20096;-71
2022/01/14 10:29:01;;;;;;;1999.90;535.13;;;;;;;;;;4991520;28;20085;-72
2022/01/14 10:31:35;;;;;;;1999.90;673.83;;;;;;;;;;4991309;28;20026;-71
2022/01/14 10:34:16;;;;;;;1999.90;464.58;;;;;;;;;;4991008;28;20026;-70
2022/01/14 10:36:44;;;;;;;1999.90;428.73;;;;;;;;;;4990927;28;20061;-71
2022/01/14 10:39:28;;;;;;;1999.90;545.65;;;;;;;;;;4991252;28;20015;-70
2022/01/14 10:41:55;;;;;;;1999.90;999.90;;;;;;;;;;4991136;28;20045;-70
2022/01/14 10:44:34;;;;;;;1999.90;592.42;;;;;;;;;;4991072;28;20046;-72
2022/01/14 10:47:12;;;;;;;1999.90;999.90;;;;;;;;;;4989298;28;20598;-72
2022/01/14 10:49:39;;;;;;;1646.47;301.10;;;;;;;;;;4991154;28;20108;-71
2022/01/14 10:52:12;;;;;;;1999.90;999.90;;;;;;;;;;4990945;28;20036;-70
2022/01/14 10:54:40;;;;;;;1196.28;200.13;;;;;;;;;;4991190;28;20030;-70
2022/01/14 10:57:14;;;;;;;1999.90;999.90;;;;;;;;;;4991251;28;20034;-70
2022/01/14 10:59:41;;;;;;;1373.60;245.80;;;;;;;;;;4991423;28;20018;-72
2022/01/14 11:02:28;;;;;;;1293.43;189.43;;;;;;;;;;4989377;28;20157;-72
2022/01/14 11:05:21;;;;;;;1072.38;179.18;;;;;;;;;;4981132;28;20128;-72
2022/01/14 11:07:49;;;;;;;1197.55;220.65;;;;;;;;;;4968106;28;20112;-72
2022/01/14 11:10:16;;;;;;;1171.22;203.85;;;;;;;;;;4971442;28;20034;-71
2022/01/14 11:12:43;;;;;;;1078.15;186.32;;;;;;;;;;4971188;28;20077;-71
2022/01/14 11:15:11;;;;;;;1624.45;270.70;;;;;;;;;;4971420;28;20034;-71
2022/01/14 11:17:39;;;;;;;1779.65;269.55;;;;;;;;;;4969598;28;20494;-71
2022/01/14 11:20:08;;;;;;;778.00;167.27;;;;;;;;;;4970623;28;20035;-73
2022/01/14 11:25:39;;;;;;;1050.03;178.80;;;;;;;;;;4929896;29;20036;-73
2022/01/14 11:28:08;;;;;;;1999.90;957.03;;;;;;;;;;4963063;28;20039;-73
2022/01/14 11:30:40;;;;;;;1999.90;577.55;;;;;;;;;;4971630;28;20070;-73
2022/01/14 11:33:06;;;;;;;;;;;;;;;;;;4970799;28;20019;-72
2022/01/14 11:35:34;;;;;;;1999.90;999.90;;;;;;;;;;4971474;28;19906;-72
2022/01/14 11:38:01;;;;;;;1999.90;999.90;;;;;;;;;;4971044;28;20031;-72
2022/01/14 11:40:47;;;;;;;81.05;10.68;;;;;;;;;;4971380;28;20438;-73
2022/01/14 11:43:34;;;;;;;1999.90;571.85;;;;;;;;;;4969942;28;20035;-68
2022/01/14 11:46:01;;;;;;;1999.90;999.90;;;;;;;;;;4971160;28;20087;-69
2022/01/14 11:48:33;;;;;;;1999.90;999.90;;;;;;;;;;4971038;28;20035;-69
2022/01/14 11:51:04;;;;;;;1999.90;998.88;;;;;;;;;;4970798;28;20050;-70
2022/01/14 11:53:39;;;;;;;1999.90;999.90;;;;;;;;;;4969437;28;20051;-70
2022/01/14 11:56:07;;;;;;;1999.90;999.90;;;;;;;;;;4968005;28;20035;-70
2022/01/14 11:58:35;;;;;;;1999.90;999.90;;;;;;;;;;4965857;28;20035;-70
2022/01/14 12:01:02;;;;;;;1999.90;999.90;;;;;;;;;;4975077;28;20042;-69
2022/01/14 12:03:29;;;;;;;1999.90;999.90;;;;;;;;;;4974442;28;20378;-70
2022/01/14 12:06:07;;;;;;;1999.90;999.90;;;;;;;;;;4974347;28;20039;-70
2022/01/14 12:08:35;;;;;;;1999.90;999.90;;;;;;;;;;4974381;28;20077;-70
2022/01/14 12:11:02;;;;;;;1999.90;999.90;;;;;;;;;;4975132;28;20029;-70
2022/01/14 12:16:05;;;;;;;1999.90;999.90;;;;;;;;;;4974278;28;20062;-69
2022/01/14 12:18:47;;;;;;;661.95;482.25;;;;;;;;;;4974821;28;20077;-70
2022/01/14 12:21:17;;;;;;;1999.90;999.90;;;;;;;;;;4974617;28;20026;-69
2022/01/14 12:23:44;;;;;;;1999.90;999.90;;;;;;;;;;4973793;28;20029;-69
2022/01/14 12:26:16;;;;;;;1999.90;999.90;;;;;;;;;;4974268;28;20450;-69
2022/01/14 12:28:43;;;;;;;1999.90;999.90;;;;;;;;;;4974072;28;20027;-69
2022/01/14 12:31:10;;;;;;;1999.90;999.90;;;;;;;;;;4972704;28;20031;-70
2022/01/14 12:33:57;;;;;;;1999.90;999.90;;;;;;;;;;4971854;28;20054;-69
2022/01/14 12:36:25;;;;;;;1999.90;994.80;;;;;;;;;;4972529;28;20031;-68
2022/01/14 12:38:52;;;;;;;1952.88;895.70;;;;;;;;;;4969258;28;20027;-70
2022/01/14 12:41:26;;;;;;;1999.90;989.13;;;;;;;;;;4974766;28;20034;-69
2022/01/14 12:43:55;;;;;;;1999.90;999.90;;;;;;;;;;4973327;28;20023;-69
2022/01/14 12:49:12;;;;;;;1999.90;922.22;;;;;;;;;;4973593;28;20053;-69
2022/01/14 12:51:39;;;;;;;1999.90;999.90;;;;;;;;;;4974114;28;20023;-70
2022/01/14 12:54:11;;;;;;;1999.90;999.90;;;;;;;;;;4974337;28;20042;-70
2022/01/14 12:56:39;;;;;;;;;;;;;;;;;;4974329;28;20368;-70
2022/01/14 12:59:13;;;;;;;1999.90;999.90;;;;;;;;;;4973430;28;19944;-70
2022/01/14 13:01:51;;;;;;;1999.90;999.90;;;;;;;;;;4974271;28;20026;-70
2022/01/14 13:04:19;;;;;;;1999.90;999.90;;;;;;;;;;4973052;28;20027;-69
2022/01/14 13:06:47;;;;;;;1999.90;999.90;;;;;;;;;;4973806;28;20042;-70
2022/01/14 13:09:20;;;;;;;1999.90;999.90;;;;;;;;;;4973336;28;20047;-69
2022/01/14 13:11:52;;;;;;;1999.90;999.90;;;;;;;;;;4972127;28;20027;-70
2022/01/14 13:14:41;;;;;;;1999.90;999.90;;;;;;;;;;4973107;28;20019;-70
2022/01/14 13:17:15;;;;;;;1999.90;977.00;;;;;;;;;;4973701;28;20487;-69
2022/01/14 13:19:42;;;;;;;1999.90;999.90;;;;;;;;;;4972351;28;20101;-68
2022/01/14 13:22:13;;;;;;;1999.90;999.90;;;;;;;;;;4972964;28;20106;-68
2022/01/14 13:24:42;;;;;;;1998.28;936.45;;;;;;;;;;4973633;28;20022;-68
2022/01/14 13:27:21;;;;;;;1999.90;999.90;;;;;;;;;;4972515;28;20031;-69
2022/01/14 13:29:49;;;;;;;1999.90;999.90;;;;;;;;;;4972926;28;20115;-69
2022/01/14 13:32:21;;;;;;;1999.90;999.90;;;;;;;;;;4970732;28;20423;-68
2022/01/14 13:34:52;;;;;;;1999.90;999.90;;;;;;;;;;4972356;28;20085;-69
2022/01/14 13:37:20;;;;;;;1999.90;999.90;;;;;;;;;;4973209;28;20086;-68
2022/01/14 13:40:00;;;;;;;1999.90;999.90;;;;;;;;;;4972707;28;20034;-69
2022/01/14 13:42:27;;;;;;;1999.90;999.90;;;;;;;;;;4972056;28;20027;-68
2022/01/14 13:45:04;;;;;;;1999.90;999.90;;;;;;;;;;4973351;28;20026;-68
2022/01/14 13:47:34;;;;;;;1999.90;999.90;;;;;;;;;;4968493;28;20510;-68
2022/01/14 13:50:27;;;;;;;1999.90;999.90;;;;;;;;;;4953272;29;20078;-68
2022/01/14 13:52:58;;;;;;;1999.90;999.90;;;;;;;;;;4951741;29;20042;-68
2022/01/14 13:55:32;;;;;;;1999.90;999.90;;;;;;;;;;4951188;29;20047;-68
2022/01/14 13:58:18;;;;;;;1999.90;999.90;;;;;;;;;;4950842;29;20040;-68
2022/01/14 14:00:47;;;;;;;1999.90;999.90;;;;;;;;;;4953253;29;20015;-68
2022/01/14 14:03:20;;;;;;;1999.90;999.90;;;;;;;;;;4966546;28;20046;-68
2022/01/14 14:05:53;;;;;;;1999.90;999.90;;;;;;;;;;4953178;28;20122;-69
2022/01/14 14:16:59;;;;;;;1999.90;999.90;;;;;;;;;;4979374;28;20088;-66
2022/01/14 14:19:27;;;;;;;1999.90;950.40;;;;;;;;;;4945304;28;20106;-66
2022/01/14 14:22:13;;;;;;;1999.90;441.15;;;;;;;;;;4949422;28;20024;-66
2022/01/14 14:24:42;;;;;;;1999.90;672.60;;;;;;;;;;4941857;28;20103;-66
2022/01/14 14:27:11;;;;;;;1999.90;827.33;;;;;;;;;;4947234;28;20035;-66
2022/01/14 14:29:43;;;;;;;1999.90;514.05;;;;;;;;;;4949708;29;20100;-67
2022/01/14 14:32:17;;;;;;;1999.90;495.70;;;;;;;;;;4948601;28;20045;-67
2022/01/14 14:34:44;;;;;;;1999.90;865.58;;;;;;;;;;4947547;28;20290;-66
2022/01/14 14:37:11;;;;;;;1999.90;471.13;;;;;;;;;;4940968;28;20024;-66
2022/01/14 14:39:38;;;;;;;1999.90;425.90;;;;;;;;;;4947059;29;20027;-66
2022/01/14 14:42:05;;;;;;;1987.85;351.52;;;;;;;;;;4948505;28;20024;-67
2022/01/14 14:44:32;;;;;;;1585.30;290.00;;;;;;;;;;4939241;28;20023;-65
2022/01/14 14:46:59;;;;;;;1999.90;999.90;;;;;;;;;;4958848;28;20032;-66
2022/01/14 14:49:26;;;;;;;1999.90;999.90;;;;;;;;;;4942819;28;20024;-66
2022/01/14 14:51:53;;;;;;;1999.90;938.50;;;;;;;;;;4943078;28;20510;-66
2022/01/14 14:54:23;;;;;;;1999.90;799.30;;;;;;;;;;4949883;29;20043;-65
2022/01/14 14:56:50;;;;;;;1999.90;704.47;;;;;;;;;;4946656;28;20466;-65
2022/01/14 14:59:17;;;;;;;1999.90;999.90;;;;;;;;;;4943106;28;20027;-66
2022/01/14 15:01:45;;;;;;;1999.90;755.47;;;;;;;;;;4959149;28;20094;-66
2022/01/14 15:04:12;;;;;;;1999.90;810.20;;;;;;;;;;4939153;29;20507;-67
2022/01/14 15:06:39;;;;;;;1999.90;999.90;;;;;;;;;;4960916;28;20035;-66
2022/01/14 15:09:07;;;;;;;874.08;159.40;;;;;;;;;;4959806;28;20138;-65
2022/01/14 15:11:34;;;;;;;639.30;125.63;;;;;;;;;;4963053;28;20027;-66
2022/01/14 15:14:03;;;;;;;1310.28;236.10;;;;;;;;;;4966412;28;20029;-66
2022/01/14 15:19:15;;;;;;;922.35;166.38;;;;;;;;;;4955465;28;20089;-66
2022/01/14 15:21:42;;;;;;;543.47;94.55;;;;;;;;;;4961534;28;20050;-66
2022/01/14 15:24:09;;;;;;;541.28;97.93;;;;;;;;;;4963234;28;20355;-66
2022/01/14 15:26:36;;;;;;;519.33;88.80;;;;;;;;;;4964803;28;20019;-66
2022/01/14 15:29:04;;;;;;;640.17;88.05;;;;;;;;;;4966927;28;20099;-67
2022/01/14 15:31:37;;;;;;;1999.90;999.90;;;;;;;;;;4966752;28;20026;-67
2022/01/14 15:34:05;;;;;;;442.83;55.53;;;;;;;;;;4962305;28;20023;-66
2022/01/14 15:36:32;;;;;;;459.38;87.03;;;;;;;;;;4973145;28;20022;-65
2022/01/14 15:38:59;;;;;;;392.88;34.67;;;;;;;;;;4973008;28;20113;-65
2022/01/14 15:41:29;;;;;;;432.83;53.90;;;;;;;;;;4973718;28;20058;-69
2022/01/14 15:43:56;;;;;;;799.88;159.18;;;;;;;;;;4967197;28;20023;-69
2022/01/14 15:46:43;;;;;;;524.40;100.32;;;;;;;;;;4969049;28;20050;-69
2022/01/14 15:49:11;;;;;;;593.67;115.32;;;;;;;;;;4969918;28;20094;-68
2022/01/14 15:51:40;;;;;;;640.17;112.68;;;;;;;;;;4974362;28;20018;-65
2022/01/14 15:54:08;;;;;;;835.85;70.68;;;;;;;;;;4967668;28;20114;-64
2022/01/14 15:56:44;;;;;;;443.83;68.28;;;;;;;;;;4971708;28;20387;-67
2022/01/14 15:59:12;;;;;;;454.70;83.53;;;;;;;;;;4969448;28;20061;-65
2022/01/14 16:01:43;;;;;;;431.40;66.50;;;;;;;;;;4963173;28;20101;-68
2022/01/14 16:04:10;;;;;;;541.20;106.38;;;;;;;;;;4962505;28;20027;-66
2022/01/14 16:06:52;;;;;;;443.90;62.78;;;;;;;;;;4953263;28;20042;-67
2022/01/14 16:12:23;;;;;;;431.77;61.78;;;;;;;;;;4958941;28;20724;-67
2022/01/14 16:14:50;;;;;;;459.45;80.65;;;;;;;;;;4971019;28;20030;-65
2022/01/14 16:17:17;;;;;;;464.63;87.70;;;;;;;;;;4967436;28;20486;-65
2022/01/14 16:19:44;;;;;;;693.42;124.32;;;;;;;;;;4962711;28;20023;-64
2022/01/14 16:22:11;;;;;;;474.90;93.18;;;;;;;;;;4970308;28;20038;-65
2022/01/14 16:24:38;;;;;;;440.23;70.70;;;;;;;;;;4966461;28;20034;-65
2022/01/14 16:27:05;;;;;;;487.73;93.18;;;;;;;;;;4968850;28;20498;-65
2022/01/14 16:30:04;;;;;;;431.48;72.05;;;;;;;;;;4969121;28;20506;-65
2022/01/14 16:32:31;;;;;;;372.15;46.67;;;;;;;;;;4939844;28;20081;-65
2022/01/14 16:34:58;;;;;;;451.45;63.70;;;;;;;;;;4967818;28;20031;-65
2022/01/14 16:37:26;;;;;;;1206.18;200.27;;;;;;;;;;4962098;28;20577;-65
2022/01/14 16:39:54;;;;;;;592.33;126.82;;;;;;;;;;4963819;28;20058;-65
2022/01/14 16:42:24;;;;;;;427.30;55.50;;;;;;;;;;4964183;28;20023;-65
2022/01/14 16:44:51;;;;;;;437.48;75.10;;;;;;;;;;4962202;28;20102;-65
2022/01/14 16:47:20;;;;;;;467.95;86.88;;;;;;;;;;4963529;28;20039;-65
2022/01/14 16:49:48;;;;;;;425.92;78.75;;;;;;;;;;4966891;28;20386;-65
2022/01/14 16:52:16;;;;;;;1399.10;427.70;;;;;;;;;;4970673;28;20526;-65
2022/01/14 16:54:43;;;;;;;429.55;70.93;;;;;;;;;;4970193;28;20023;-65
2022/01/14 16:57:13;;;;;;;432.13;72.50;;;;;;;;;;4969882;28;20483;-65
2022/01/14 16:59:40;;;;;;;620.47;112.10;;;;;;;;;;4970581;28;20035;-65
2022/01/14 17:02:07;;;;;;;843.17;149.68;;;;;;;;;;4946956;29;20114;-65
2022/01/14 17:04:34;;;;;;;1202.50;342.77;;;;;;;;;;4965039;28;20020;-65
2022/01/14 17:07:07;;;;;;;903.05;241.10;;;;;;;;;;4969783;28;20039;-65
2022/01/14 17:09:34;;;;;;;1059.50;285.10;;;;;;;;;;4969932;28;20104;-65
2022/01/14 17:12:02;;;;;;;1923.22;472.40;;;;;;;;;;4966164;28;20030;-65
2022/01/14 17:14:29;;;;;;;1192.13;275.17;;;;;;;;;;4970428;28;20028;-65
2022/01/14 17:16:56;;;;;;;1999.90;619.05;;;;;;;;;;4963119;28;20480;-65
2022/01/14 17:19:23;;;;;;;1999.90;728.58;;;;;;;;;;4972191;28;20061;-65
2022/01/14 17:21:53;;;;;;;1322.72;254.60;;;;;;;;;;4965122;28;20034;-65
2022/01/14 17:24:20;;;;;;;1692.18;359.23;;;;;;;;;;4966574;28;20110;-65
2022/01/14 17:26:47;;;;;;;1999.90;625.60;;;;;;;;;;4962356;28;20039;-66
2022/01/14 17:29:14;;;;;;;1427.25;377.92;;;;;;;;;;4961891;28;20094;-66
2022/01/14 17:31:42;;;;;;;1032.38;251.75;;;;;;;;;;4969306;28;20034;-64
2022/01/14 17:34:09;;;;;;;1999.90;999.90;;;;;;;;;;4966650;28;20510;-65
2022/01/14 17:36:36;;;;;;;1999.90;441.80;;;;;;;;;;4969619;28;20109;-66
2022/01/14 17:39:04;;;;;;;623.25;148.40;;;;;;;;;;4969996;28;20038;-65
2022/01/14 17:41:31;;;;;;;1558.20;330.45;;;;;;;;;;4969203;28;20118;-66
2022/01/14 17:43:59;;;;;;;1999.90;443.27;;;;;;;;;;4970856;28;20030;-66
2022/01/14 17:46:26;;;;;;;908.58;121.45;;;;;;;;;;4971202;28;20038;-68
2022/01/14 17:48:53;;;;;;;1852.45;257.77;;;;;;;;;;4968598;28;20061;-66
2022/01/14 17:51:21;;;;;;;573.08;118.95;;;;;;;;;;4970593;28;20027;-66
2022/01/14 17:53:48;;;;;;;474.55;98.45;;;;;;;;;;4970845;28;20019;-65
2022/01/14 17:56:18;;;;;;;953.10;217.63;;;;;;;;;;4969752;28;20525;-66
2022/01/14 17:58:45;;;;;;;662.28;158.07;;;;;;;;;;4970286;28;20026;-65
2022/01/14 18:01:13;;;;;;;657.03;139.82;;;;;;;;;;4970523;28;20026;-66
2022/01/14 18:03:40;;;;;;;1998.93;453.25;;;;;;;;;;4970719;28;20019;-66
2022/01/14 18:06:08;;;;;;;1603.82;373.02;;;;;;;;;;4970739;28;20035;-65
2022/01/14 18:08:35;;;;;;;1999.90;801.22;;;;;;;;;;4969891;28;20404;-65
2022/01/14 18:11:02;;;;;;;1999.90;999.90;;;;;;;;;;4970746;28;20116;-66
2022/01/14 18:13:55;;;;;;;1999.90;999.90;;;;;;;;;;4971394;28;20019;-66
2022/01/14 18:16:22;;;;;;;1999.90;963.88;;;;;;;;;;4970844;28;20181;-65
2022/01/14 18:18:50;;;;;;;1999.90;999.90;;;;;;;;;;4970374;28;20023;-65
2022/01/14 18:21:18;;;;;;;1999.90;737.25;;;;;;;;;;4971132;28;20023;-66
2022/01/14 18:23:46;;;;;;;1999.90;999.90;;;;;;;;;;4970611;28;20019;-66
2022/01/14 18:26:13;;;;;;;1453.93;319.80;;;;;;;;;;4971313;28;20030;-66
2022/01/14 18:28:40;;;;;;;1454.05;294.92;;;;;;;;;;4971072;28;20035;-66
2022/01/14 18:31:07;;;;;;;1971.55;442.17;;;;;;;;;;4969666;28;20023;-66
2022/01/14 18:33:35;;;;;;;1101.57;241.65;;;;;;;;;;4970923;28;20482;-66
2022/01/14 18:36:03;;;;;;;1999.90;631.63;;;;;;;;;;4970649;28;20430;-65
2022/01/14 18:38:30;;;;;;;1999.90;507.20;;;;;;;;;;4970970;28;20019;-65
2022/01/14 18:40:57;;;;;;;772.40;175.38;;;;;;;;;;4970959;28;20794;-65
2022/01/14 18:43:25;;;;;;;1634.30;259.60;;;;;;;;;;4970640;28;20146;-66
2022/01/14 18:45:53;;;;;;;650.83;122.68;;;;;;;;;;4970775;28;20509;-65
2022/01/14 18:48:25;;;;;;;788.33;194.05;;;;;;;;;;4970101;28;20043;-66
2022/01/14 18:50:52;;;;;;;620.35;137.85;;;;;;;;;;4967774;28;20488;-64
2022/01/14 18:53:20;;;;;;;1434.93;268.42;;;;;;;;;;4968365;28;20038;-66
2022/01/14 18:55:47;;;;;;;1999.90;713.53;;;;;;;;;;4968779;28;20019;-66
2022/01/14 18:58:14;;;;;;;1815.97;409.23;;;;;;;;;;4970117;28;20541;-66
2022/01/14 19:00:41;;;;;;;1333.15;282.70;;;;;;;;;;4970758;28;20023;-66
2022/01/14 19:03:08;;;;;;;1412.55;254.50;;;;;;;;;;4970362;28;20019;-67
2022/01/14 19:05:35;;;;;;;1999.90;459.60;;;;;;;;;;4970497;28;20026;-65
2022/01/14 19:08:03;;;;;;;1999.90;414.80;;;;;;;;;;4965559;28;20520;-66
2022/01/14 19:10:30;;;;;;;1999.90;557.72;;;;;;;;;;4947810;28;20031;-66
2022/01/14 19:12:57;;;;;;;1999.90;806.33;;;;;;;;;;4964966;28;20435;-66
2022/01/14 19:15:25;;;;;;;1999.90;682.35;;;;;;;;;;4951865;28;20031;-67
2022/01/14 19:17:52;;;;;;;1999.90;964.70;;;;;;;;;;4951177;28;20019;-66
2022/01/14 19:20:19;;;;;;;1999.90;533.10;;;;;;;;;;4949213;28;20055;-66
2022/01/14 19:22:46;;;;;;;1999.90;899.20;;;;;;;;;;4966004;28;20815;-65
2022/01/14 19:25:13;;;;;;;1999.90;957.67;;;;;;;;;;4951620;28;20023;-65
2022/01/14 19:27:43;;;;;;;1999.90;359.88;;;;;;;;;;4950534;28;20047;-64
2022/01/14 19:30:12;;;;;;;1972.72;287.45;;;;;;;;;;4950450;28;20051;-66
2022/01/14 19:32:39;;;;;;;1999.90;411.92;;;;;;;;;;4950521;28;20027;-65
2022/01/14 19:35:06;;;;;;;1999.90;401.50;;;;;;;;;;4950683;28;20023;-67
2022/01/14 19:37:33;;;;;;;1999.90;873.58;;;;;;;;;;4946306;28;20031;-66
2022/01/14 19:40:00;;;;;;;1999.90;976.20;;;;;;;;;;4948166;28;20419;-65
2022/01/14 19:42:28;;;;;;;1999.90;670.25;;;;;;;;;;4949365;28;20054;-66
2022/01/14 19:44:56;;;;;;;1999.90;504.00;;;;;;;;;;4964412;28;20455;-64
2022/01/14 19:47:26;;;;;;;1999.90;675.45;;;;;;;;;;4949913;28;20045;-64
2022/01/14 19:49:54;;;;;;;816.47;138.48;;;;;;;;;;4949383;28;20023;-64
2022/01/14 19:52:21;;;;;;;1959.72;372.92;;;;;;;;;;4948746;28;20078;-66
2022/01/14 19:54:48;;;;;;;1843.50;353.77;;;;;;;;;;4947030;28;20110;-65
2022/01/14 19:57:16;;;;;;;1403.32;277.77;;;;;;;;;;4949299;28;20034;-65
2022/01/14 19:59:43;;;;;;;1999.90;999.90;;;;;;;;;;4948656;28;20031;-66
2022/01/14 20:02:10;;;;;;;896.83;143.30;;;;;;;;;;4949534;28;20031;-66
2022/01/14 20:04:38;;;;;;;503.00;109.38;;;;;;;;;;4950469;28;20078;-66
2022/01/14 20:07:06;;;;;;;939.25;174.07;;;;;;;;;;4950695;28;20083;-65
2022/01/14 20:09:33;;;;;;;871.95;160.02;;;;;;;;;;4967386;28;20121;-65
2022/01/14 20:12:00;;;;;;;1523.57;252.48;;;;;;;;;;4970009;28;20038;-65
2022/01/14 20:14:27;;;;;;;829.22;170.02;;;;;;;;;;4968769;28;20382;-65
2022/01/14 20:16:54;;;;;;;717.30;155.65;;;;;;;;;;4970326;28;20049;-65
2022/01/14 20:19:21;;;;;;;1224.20;305.77;;;;;;;;;;4970212;28;20031;-65
2022/01/14 20:21:48;;;;;;;1251.10;276.73;;;;;;;;;;4971720;28;20364;-66
2022/01/14 20:24:15;;;;;;;832.67;197.45;;;;;;;;;;4965624;28;20034;-66
2022/01/14 20:26:42;;;;;;;1999.90;692.72;;;;;;;;;;4972426;28;20030;-66
2022/01/14 20:29:11;;;;;;;899.20;190.38;;;;;;;;;;4972351;28;20042;-66
2022/01/14 20:31:38;;;;;;;1294.05;272.15;;;;;;;;;;4970380;28;20469;-68
2022/01/14 20:34:05;;;;;;;574.20;118.97;;;;;;;;;;4972868;28;20026;-66
2022/01/14 20:36:32;;;;;;;476.38;80.07;;;;;;;;;;4973473;28;20549;-67
2022/01/14 20:38:59;;;;;;;1148.65;269.38;;;;;;;;;;4974389;28;20033;-66
2022/01/14 20:41:27;;;;;;;1999.90;627.08;;;;;;;;;;4973689;28;20023;-67
2022/01/14 20:44:05;;;;;;;1999.90;811.22;;;;;;;;;;4973798;28;20031;-67
2022/01/14 20:46:35;;;;;;;1472.93;326.73;;;;;;;;;;4972166;28;20023;-67
2022/01/14 20:49:03;;;;;;;1999.90;999.90;;;;;;;;;;4972445;28;20035;-67
2022/01/14 20:51:30;;;;;;;1999.90;999.90;;;;;;;;;;4972286;28;20034;-66
2022/01/14 20:53:59;;;;;;;1999.90;859.38;;;;;;;;;;4971082;28;20037;-66